Date,TemperatureHighF,TemperatureAvgF,TemperatureLowF,DewpointHighF,DewpointAvgF,DewpointLowF,HumidityHigh,HumidityAvg,HumidityLow,PressureMaxIn,PressureMinIn,WindSpeedMaxMPH,WindSpeedAvgMPH,GustSpeedMaxMPH,PrecipitationSumIn
2013-8-1,92.1,76.0,60.3,49.8,34.9,18.1,47,25,9,29.64,29.40,21,5,23,0.00
2013-8-2,88.9,77.0,65.8,47.3,37.5,26.2,44,25,12,29.55,29.36,29,6,29,0.00
2013-8-3,92.5,78.1,62.1,47.7,33.2,13.8,43,21,7,29.59,29.39,25,6,26,0.00
2013-8-4,93.9,78.1,59.4,43.3,28.5,4.3,42,18,4,29.62,29.39,24,5,27,0.00
2013-8-5,93.6,80.1,61.7,31.5,20.5,-0.0,22,12,4,29.61,29.37,27,6,29,0.00
2013-8-6,92.5,78.7,61.3,37.2,22.5,-2.7,31,14,4,29.61,29.43,28,6,29,0.00
2013-8-7,89.1,75.9,64.9,43.3,30.6,-2.4,38,22,4,29.63,29.47,31,9,31,0.00
2013-8-8,88.9,74.2,57.6,44.1,31.1,-2.4,45,25,4,29.63,29.41,25,6,25,0.00
2013-8-9,86.9,73.0,55.4,42.1,26.0,7.3,47,18,11,29.61,29.40,26,4,27,0.00
2013-8-10,87.1,73.8,62.1,50.0,39.6,25.7,47,30,18,29.64,29.48,19,5,22,0.00
2013-8-11,91.8,75.7,59.9,48.4,40.5,30.6,42,29,15,29.66,29.41,20,4,23,0.00
2013-8-12,93.7,78.6,62.1,51.3,39.0,26.8,41,25,15,29.59,29.37,19,4,21,0.00
2013-8-13,99.0,81.5,64.8,47.1,36.2,23.2,31,21,9,29.58,29.34,22,3,22,0.00
2013-8-14,99.0,83.9,66.7,40.5,30.4,22.5,23,15,7,29.54,29.31,19,3,19,0.00
2013-8-15,99.9,84.6,69.3,48.0,35.2,26.1,24,18,10,29.53,29.30,24,4,26,0.00
2013-8-16,98.8,85.4,70.3,52.3,47.4,34.7,44,28,14,29.54,29.30,25,4,27,0.00
2013-8-17,99.9,85.5,72.9,51.6,43.4,20.1,43,25,7,29.51,29.23,32,5,32,0.00
2013-8-18,101.3,83.3,69.3,56.7,45.0,33.1,43,27,17,29.48,29.22,24,2,24,0.00
2013-8-19,94.8,81.6,69.1,61.7,57.2,49.8,69,46,27,29.57,29.32,19,2,22,0.01
2013-8-20,98.1,83.0,69.6,54.5,45.3,27.7,53,30,9,29.49,29.27,21,3,22,0.00
2013-8-21,98.1,83.5,69.4,47.1,39.6,31.8,35,22,13,29.50,29.30,23,4,23,0.00
2013-8-22,99.0,84.6,69.3,44.8,39.6,32.7,37,21,13,29.53,29.28,26,4,29,0.00
2013-8-23,96.6,81.0,67.1,37.8,30.4,17.2,32,18,6,29.47,29.22,20,3,20,0.00
2013-8-24,95.4,78.5,60.8,36.1,23.8,1.8,28,15,3,29.52,29.24,21,3,24,0.00
2013-8-25,95.2,77.8,62.4,45.9,32.4,15.6,38,21,7,29.59,29.32,20,3,20,0.00
2013-8-26,87.1,74.8,62.1,61.5,52.8,30.6,64,47,23,29.65,29.41,17,2,17,0.00
2013-8-27,92.5,77.6,66.0,62.4,57.7,46.0,79,53,21,29.54,29.29,17,2,18,0.00
2013-8-28,96.3,80.9,67.3,58.6,54.9,51.4,62,43,24,29.52,29.29,20,3,22,0.00
2013-8-29,99.3,83.5,68.5,60.3,52.5,49.3,55,36,21,29.58,29.38,14,2,14,0.00
2013-8-30,95.5,81.9,70.9,67.8,56.5,49.6,65,43,26,29.61,29.39,18,3,18,0.23
2013-8-31,83.1,77.7,74.7,66.0,63.3,61.2,72,61,52,29.55,29.49,15,3,15,0.00